createdAt,value
2019-05-23T02:52:52.017Z,7.57
2019-05-23T02:55:38.498Z,8.43
2019-05-23T03:06:23.309Z,8.00
2019-05-23T03:08:56.217Z,8.17
2019-05-23T03:11:42.630Z,7.70
2019-05-23T03:16:47.588Z,7.03
2019-05-23T03:19:32.132Z,8.00
2019-05-23T03:27:24.658Z,8.83
2019-05-23T03:29:57.336Z,7.90
2019-05-23T03:32:51.061Z,7.30
2019-05-23T03:35:39.888Z,7.60
2019-05-23T03:38:15.750Z,7.43
2019-05-23T03:40:43.667Z,6.63
2019-05-23T03:44:06.744Z,8.10
2019-05-23T03:52:11.173Z,6.57
2019-05-23T03:54:46.281Z,6.50
2019-05-23T03:57:25.607Z,6.63
2019-05-23T03:59:59.720Z,6.97
2019-05-23T04:07:38.738Z,6.20
2019-05-23T04:10:08.937Z,6.30
2019-05-23T04:12:41.432Z,5.60
2019-05-23T04:15:15.504Z,6.07
2019-05-23T04:17:45.542Z,5.97
2019-05-23T04:20:24.337Z,5.00
2019-05-23T04:28:04.511Z,4.50
2019-05-23T04:30:37.452Z,4.57
2019-05-23T04:33:08.142Z,4.40
2019-05-23T04:35:41.714Z,4.10
2019-05-23T04:38:35.810Z,4.45
2019-05-23T04:41:04.659Z,4.53
2019-05-23T04:43:35.400Z,3.83
2019-05-23T04:46:06.240Z,4.80
2019-05-23T04:48:38.331Z,3.60
2019-05-23T04:53:45.987Z,3.93
2019-05-23T04:56:39.269Z,3.97
2019-05-23T04:59:11.232Z,4.63
2019-05-23T05:01:46.700Z,3.60
2019-05-23T05:06:59.850Z,4.50
2019-05-23T05:09:56.425Z,4.93
2019-05-23T05:12:32.163Z,4.93
2019-05-23T05:15:04.774Z,4.90
2019-05-23T05:17:36.292Z,5.73
2019-05-23T05:26:06.738Z,6.47
2019-05-23T05:28:38.615Z,6.37
2019-05-23T05:31:37.358Z,6.97
2019-05-23T05:34:07.618Z,6.13
2019-05-23T05:36:42.633Z,6.47
2019-05-23T05:39:16.934Z,7.40
2019-05-23T05:41:49.789Z,7.50
2019-05-23T05:44:27.805Z,7.43
2019-05-23T05:47:01.454Z,6.77
2019-05-23T05:49:41.962Z,6.37
2019-05-23T05:52:22.782Z,7.13
2019-05-23T05:55:16.783Z,9.20
2019-05-23T06:00:59.434Z,7.90
2019-05-23T06:03:54.901Z,9.27
2019-05-23T06:06:50.244Z,7.80
2019-05-23T06:09:32.033Z,7.07
2019-05-23T06:12:06.349Z,9.03
2019-05-23T06:14:39.500Z,9.23
2019-05-23T06:17:19.442Z,7.37
2019-05-23T06:20:23.228Z,9.77
2019-05-23T06:23:02.969Z,8.60
2019-05-23T06:25:48.893Z,7.97
2019-05-23T06:28:40.913Z,7.17
2019-05-23T06:31:29.155Z,6.37
2019-05-23T08:01:20.553Z,2.90
2019-05-23T10:41:53.488Z,3.83
2019-05-23T10:44:44.858Z,5.80
2019-05-23T10:47:40.868Z,4.97
2019-05-23T10:50:18.374Z,4.00
2019-05-23T11:17:53.020Z,2.87
2019-05-23T11:20:41.843Z,2.37
2019-05-23T11:23:29.175Z,2.60
2019-05-23T11:45:25.625Z,2.57
2019-05-23T11:47:57.638Z,2.73
2019-05-23T11:50:43.196Z,2.63
2019-05-23T12:04:52.878Z,2.83
2019-05-23T12:07:31.139Z,2.50
2019-05-23T12:10:01.102Z,3.60
2019-05-23T13:27:51.983Z,2.70
2019-05-23T14:21:48.191Z,1.90
2019-05-23T14:40:20.017Z,2.50
2019-05-23T14:43:31.657Z,3.33
2019-05-23T14:46:08.780Z,2.50
2019-05-23T14:48:59.809Z,2.70
2019-05-23T14:51:54.082Z,3.10
2019-05-23T14:54:33.029Z,2.73
2019-05-23T14:57:08.899Z,2.73
2019-05-23T14:59:48.435Z,2.40
2019-05-23T15:02:27.742Z,2.40
2019-05-23T15:05:00.832Z,2.23
2019-05-23T15:07:45.081Z,2.57
2019-05-23T15:10:56.168Z,2.73
2019-05-23T15:13:38.498Z,2.27
2019-05-23T15:16:25.421Z,2.37
2019-05-23T15:19:07.636Z,2.50
2019-05-23T15:30:05.519Z,2.50
2019-05-23T15:32:38.062Z,2.30
2019-05-23T15:35:13.589Z,2.20
2019-05-23T15:37:45.595Z,2.30
2019-05-23T15:40:20.605Z,2.30
2019-05-23T15:42:58.803Z,2.37
2019-05-23T15:45:31.626Z,1.83
2019-05-23T15:48:28.383Z,2.60
2019-05-23T15:50:59.910Z,2.37
2019-05-23T15:54:06.967Z,2.50
2019-05-23T15:56:48.028Z,2.53
2019-05-23T15:59:29.207Z,2.43
2019-05-23T16:02:10.914Z,2.60
2019-05-23T16:04:52.550Z,2.17
2019-05-23T16:07:36.209Z,2.13
2019-05-23T16:10:10.391Z,1.80
2019-05-23T16:12:44.467Z,2.47
2019-05-23T16:15:17.312Z,2.30
2019-05-23T16:18:27.399Z,2.10
2019-05-23T16:24:08.351Z,2.40
2019-05-23T16:27:21.533Z,1.85
2019-05-23T16:30:29.439Z,2.93
2019-05-23T16:33:01.684Z,2.90
2019-05-23T16:35:37.773Z,2.47
2019-05-23T16:38:44.589Z,2.23
2019-05-23T16:46:09.242Z,1.97
2019-05-23T16:49:23.918Z,2.07
2019-05-23T16:58:55.828Z,2.07
2019-05-23T17:01:56.002Z,2.07
2019-05-23T17:05:16.397Z,2.37
2019-05-23T17:09:10.402Z,2.40
2019-05-23T17:19:38.819Z,2.47
2019-05-23T17:25:27.767Z,2.20
2019-05-23T17:28:54.982Z,2.20
2019-05-23T17:31:51.055Z,2.27
2019-05-23T17:38:18.603Z,2.37
2019-05-23T17:45:17.917Z,2.33
2019-05-23T20:33:18.944Z,4.30
2019-05-23T20:36:25.353Z,5.10
2019-05-23T22:05:18.503Z,5.60
2019-05-23T22:08:42.669Z,5.00
2019-05-23T22:11:43.872Z,5.03
2019-05-23T22:15:14.179Z,4.73
2019-05-23T22:22:17.726Z,5.00
